sensor_id;sensor_type;location;lat;lon;timestamp;pressure;altitude;pressure_sealevel;temperature;humidity
80180;BME280;69505;52.134;5.438;2024-03-29T00:01:04;99223.22;;;7.07;91.86
80180;BME280;69505;52.134;5.438;2024-03-29T00:03:30;99221.81;;;7.03;92.09
80180;BME280;69505;52.134;5.438;2024-03-29T00:05:55;99215.00;;;7.01;91.98
80180;BME280;69505;52.134;5.438;2024-03-29T00:08:21;99217.41;;;7.04;92.90
80180;BME280;69505;52.134;5.438;2024-03-29T00:10:47;99213.78;;;7.05;92.45
80180;BME280;69505;52.134;5.438;2024-03-29T00:13:13;99203.50;;;7.02;92.07
80180;BME280;69505;52.134;5.438;2024-03-29T00:15:38;99204.75;;;6.98;92.42
80180;BME280;69505;52.134;5.438;2024-03-29T00:18:04;99205.16;;;7.03;92.17
80180;BME280;69505;52.134;5.438;2024-03-29T00:20:29;99210.16;;;6.96;91.66
80180;BME280;69505;52.134;5.438;2024-03-29T00:22:55;99221.53;;;6.97;92.53
80180;BME280;69505;52.134;5.438;2024-03-29T00:25:21;99222.59;;;6.84;92.97
80180;BME280;69505;52.134;5.438;2024-03-29T00:27:46;99218.16;;;6.75;93.63
80180;BME280;69505;52.134;5.438;2024-03-29T00:30:14;99216.50;;;6.74;94.07
80180;BME280;69505;52.134;5.438;2024-03-29T00:32:40;99224.53;;;6.73;94.09
80180;BME280;69505;52.134;5.438;2024-03-29T00:35:06;99228.41;;;6.78;93.94
80180;BME280;69505;52.134;5.438;2024-03-29T00:37:31;99226.47;;;6.80;93.42
80180;BME280;69505;52.134;5.438;2024-03-29T00:39:57;99238.03;;;6.79;93.82
80180;BME280;69505;52.134;5.438;2024-03-29T00:42:24;99241.78;;;6.86;93.48
80180;BME280;69505;52.134;5.438;2024-03-29T00:44:50;99240.00;;;6.97;92.92
80180;BME280;69505;52.134;5.438;2024-03-29T00:47:15;99242.34;;;6.90;93.59
80180;BME280;69505;52.134;5.438;2024-03-29T00:49:41;99248.03;;;6.85;93.46
80180;BME280;69505;52.134;5.438;2024-03-29T00:52:06;99247.63;;;6.90;92.93
80180;BME280;69505;52.134;5.438;2024-03-29T00:54:32;99252.38;;;6.96;93.09
80180;BME280;69505;52.134;5.438;2024-03-29T00:56:58;99250.44;;;6.98;92.66
80180;BME280;69505;52.134;5.438;2024-03-29T00:59:23;99251.81;;;6.93;92.58
80180;BME280;69505;52.134;5.438;2024-03-29T01:01:50;99256.53;;;6.89;92.89
80180;BME280;69505;52.134;5.438;2024-03-29T01:04:17;99262.63;;;6.89;93.26
80180;BME280;69505;52.134;5.438;2024-03-29T01:06:43;99259.56;;;6.84;94.09
80180;BME280;69505;52.134;5.438;2024-03-29T01:09:09;99251.78;;;6.83;94.11
80180;BME280;69505;52.134;5.438;2024-03-29T01:11:38;99254.03;;;6.87;93.31
80180;BME280;69505;52.134;5.438;2024-03-29T01:14:05;99255.69;;;6.88;94.23
80180;BME280;69505;52.134;5.438;2024-03-29T01:16:31;99256.66;;;6.87;94.42
80180;BME280;69505;52.134;5.438;2024-03-29T01:18:59;99250.94;;;6.82;94.24
80180;BME280;69505;52.134;5.438;2024-03-29T01:21:26;99247.22;;;6.95;93.77
80180;BME280;69505;52.134;5.438;2024-03-29T01:23:52;99241.25;;;6.93;93.96
80180;BME280;69505;52.134;5.438;2024-03-29T01:26:18;99234.31;;;6.91;93.82
80180;BME280;69505;52.134;5.438;2024-03-29T01:28:44;99230.41;;;6.86;94.15
80180;BME280;69505;52.134;5.438;2024-03-29T01:31:09;99240.00;;;6.87;94.22
80180;BME280;69505;52.134;5.438;2024-03-29T01:33:35;99234.31;;;6.91;93.32
80180;BME280;69505;52.134;5.438;2024-03-29T01:36:07;99243.34;;;6.89;94.14
80180;BME280;69505;52.134;5.438;2024-03-29T01:38:33;99240.13;;;6.85;93.90
80180;BME280;69505;52.134;5.438;2024-03-29T01:40:59;99224.16;;;6.87;94.06
80180;BME280;69505;52.134;5.438;2024-03-29T01:43:25;99230.00;;;6.90;93.62
80180;BME280;69505;52.134;5.438;2024-03-29T01:45:54;99216.09;;;6.88;93.66
80180;BME280;69505;52.134;5.438;2024-03-29T01:48:24;99222.34;;;6.87;94.23
80180;BME280;69505;52.134;5.438;2024-03-29T01:50:51;99217.06;;;6.87;93.64
80180;BME280;69505;52.134;5.438;2024-03-29T01:53:20;99217.63;;;6.81;93.75
80180;BME280;69505;52.134;5.438;2024-03-29T01:55:46;99209.28;;;6.76;93.62
80180;BME280;69505;52.134;5.438;2024-03-29T01:58:12;99203.84;;;6.78;93.80
80180;BME280;69505;52.134;5.438;2024-03-29T02:00:41;99187.19;;;6.77;93.73
80180;BME280;69505;52.134;5.438;2024-03-29T02:03:09;99190.25;;;6.73;94.28
80180;BME280;69505;52.134;5.438;2024-03-29T02:05:42;99190.94;;;6.75;93.94
80180;BME280;69505;52.134;5.438;2024-03-29T02:08:10;99202.03;;;6.68;94.59
80180;BME280;69505;52.134;5.438;2024-03-29T02:10:36;99202.03;;;6.68;94.04
80180;BME280;69505;52.134;5.438;2024-03-29T02:13:02;99200.75;;;6.63;94.32
80180;BME280;69505;52.134;5.438;2024-03-29T02:15:29;99202.97;;;6.58;94.14
80180;BME280;69505;52.134;5.438;2024-03-29T02:17:55;99204.19;;;6.54;94.18
80180;BME280;69505;52.134;5.438;2024-03-29T02:20:21;99209.59;;;6.52;94.56
80180;BME280;69505;52.134;5.438;2024-03-29T02:22:54;99219.75;;;6.57;94.52
80180;BME280;69505;52.134;5.438;2024-03-29T02:25:20;99226.94;;;6.55;94.28
80180;BME280;69505;52.134;5.438;2024-03-29T02:27:47;99229.16;;;6.49;94.60
80180;BME280;69505;52.134;5.438;2024-03-29T02:30:14;99223.63;;;6.53;94.56
80180;BME280;69505;52.134;5.438;2024-03-29T02:32:41;99226.53;;;6.49;94.87
80180;BME280;69505;52.134;5.438;2024-03-29T02:35:06;99242.22;;;6.51;94.10
80180;BME280;69505;52.134;5.438;2024-03-29T02:37:32;99242.34;;;6.49;94.56
80180;BME280;69505;52.134;5.438;2024-03-29T02:39:58;99241.94;;;6.54;93.84
80180;BME280;69505;52.134;5.438;2024-03-29T02:42:23;99237.91;;;6.50;94.38
80180;BME280;69505;52.134;5.438;2024-03-29T02:44:49;99240.53;;;6.50;94.89
80180;BME280;69505;52.134;5.438;2024-03-29T02:47:14;99242.34;;;6.49;94.48
80180;BME280;69505;52.134;5.438;2024-03-29T02:49:40;99234.56;;;6.48;94.96
80180;BME280;69505;52.134;5.438;2024-03-29T02:52:06;99238.72;;;6.50;94.98
80180;BME280;69505;52.134;5.438;2024-03-29T02:54:32;99233.22;;;6.54;95.31
80180;BME280;69505;52.134;5.438;2024-03-29T02:56:57;99241.31;;;6.62;94.58
80180;BME280;69505;52.134;5.438;2024-03-29T02:59:23;99235.88;;;6.63;94.73
80180;BME280;69505;52.134;5.438;2024-03-29T03:01:48;99241.03;;;6.65;94.06
80180;BME280;69505;52.134;5.438;2024-03-29T03:04:14;99230.47;;;6.65;93.93
80180;BME280;69505;52.134;5.438;2024-03-29T03:06:40;99239.09;;;6.67;94.35
80180;BME280;69505;52.134;5.438;2024-03-29T03:09:05;99239.25;;;6.75;93.49
80180;BME280;69505;52.134;5.438;2024-03-29T03:11:49;99233.44;;;6.81;93.35
80180;BME280;69505;52.134;5.438;2024-03-29T03:14:15;99236.09;;;6.81;93.62
80180;BME280;69505;52.134;5.438;2024-03-29T03:16:40;99236.09;;;6.81;93.30
80180;BME280;69505;52.134;5.438;2024-03-29T03:19:06;99230.81;;;6.81;93.69
80180;BME280;69505;52.134;5.438;2024-03-29T03:21:32;99245.94;;;6.79;93.12
80180;BME280;69505;52.134;5.438;2024-03-29T03:23:57;99243.59;;;6.86;93.76
80180;BME280;69505;52.134;5.438;2024-03-29T03:26:23;99242.63;;;6.87;93.64
80180;BME280;69505;52.134;5.438;2024-03-29T03:28:48;99250.16;;;6.91;92.47
80180;BME280;69505;52.134;5.438;2024-03-29T03:31:14;99256.13;;;6.94;92.65
80180;BME280;69505;52.134;5.438;2024-03-29T03:33:40;99263.75;;;6.97;92.57
80180;BME280;69505;52.134;5.438;2024-03-29T03:36:05;99255.19;;;7.04;91.70
80180;BME280;69505;52.134;5.438;2024-03-29T03:38:31;99258.78;;;7.03;92.11
80180;BME280;69505;52.134;5.438;2024-03-29T03:40:58;99260.47;;;7.04;92.04
80180;BME280;69505;52.134;5.438;2024-03-29T03:43:24;99264.06;;;7.03;92.48
80180;BME280;69505;52.134;5.438;2024-03-29T03:45:50;99254.34;;;7.04;92.39
80180;BME280;69505;52.134;5.438;2024-03-29T03:48:15;99256.44;;;7.10;91.94
80180;BME280;69505;52.134;5.438;2024-03-29T03:50:41;99258.41;;;7.18;91.85
80180;BME280;69505;52.134;5.438;2024-03-29T03:53:07;99268.00;;;7.19;91.69
80180;BME280;69505;52.134;5.438;2024-03-29T03:55:37;99255.34;;;7.22;91.76
80180;BME280;69505;52.134;5.438;2024-03-29T03:58:03;99266.19;;;7.19;92.12
80180;BME280;69505;52.134;5.438;2024-03-29T04:00:29;99275.78;;;7.20;92.34
80180;BME280;69505;52.134;5.438;2024-03-29T04:02:54;99275.91;;;7.28;91.67
80180;BME280;69505;52.134;5.438;2024-03-29T04:05:22;99265.22;;;7.30;91.65
80180;BME280;69505;52.134;5.438;2024-03-29T04:07:48;99265.81;;;7.34;91.28
80180;BME280;69505;52.134;5.438;2024-03-29T04:10:14;99267.03;;;7.29;92.45
80180;BME280;69505;52.134;5.438;2024-03-29T04:12:40;99272.75;;;7.35;92.43
80180;BME280;69505;52.134;5.438;2024-03-29T04:15:06;99279.03;;;7.43;91.46
80180;BME280;69505;52.134;5.438;2024-03-29T04:17:32;99279.16;;;7.42;92.22
80180;BME280;69505;52.134;5.438;2024-03-29T04:19:58;99274.72;;;7.42;92.63
80180;BME280;69505;52.134;5.438;2024-03-29T04:22:24;99273.06;;;7.41;92.75
80180;BME280;69505;52.134;5.438;2024-03-29T04:24:50;99266.22;;;7.39;92.55
80180;BME280;69505;52.134;5.438;2024-03-29T04:27:16;99261.38;;;7.44;92.24
80180;BME280;69505;52.134;5.438;2024-03-29T04:29:42;99258.56;;;7.45;92.09
80180;BME280;69505;52.134;5.438;2024-03-29T04:32:08;99266.09;;;7.50;92.53
80180;BME280;69505;52.134;5.438;2024-03-29T04:34:34;99263.72;;;7.47;92.65
80180;BME280;69505;52.134;5.438;2024-03-29T04:37:00;99262.91;;;7.56;91.56
80180;BME280;69505;52.134;5.438;2024-03-29T04:39:25;99260.13;;;7.58;91.93
80180;BME280;69505;52.134;5.438;2024-03-29T04:41:51;99274.31;;;7.57;92.25
80180;BME280;69505;52.134;5.438;2024-03-29T04:44:27;99271.94;;;7.53;93.41
80180;BME280;69505;52.134;5.438;2024-03-29T04:46:53;99271.38;;;7.60;92.95
80180;BME280;69505;52.134;5.438;2024-03-29T04:49:22;99264.72;;;7.65;92.74
80180;BME280;69505;52.134;5.438;2024-03-29T04:51:53;99253.47;;;7.73;92.62
80180;BME280;69505;52.134;5.438;2024-03-29T04:54:19;99268.19;;;7.76;93.47
80180;BME280;69505;52.134;5.438;2024-03-29T04:56:44;99270.28;;;7.72;94.89
80180;BME280;69505;52.134;5.438;2024-03-29T04:59:10;99245.53;;;7.63;96.89
80180;BME280;69505;52.134;5.438;2024-03-29T05:01:36;99266.25;;;7.58;98.44
80180;BME280;69505;52.134;5.438;2024-03-29T05:04:02;99256.06;;;7.53;99.97
80180;BME280;69505;52.134;5.438;2024-03-29T05:06:29;99249.69;;;7.46;100.00
80180;BME280;69505;52.134;5.438;2024-03-29T05:08:55;99265.81;;;7.43;100.00
80180;BME280;69505;52.134;5.438;2024-03-29T05:11:21;99270.78;;;7.37;100.00
80180;BME280;69505;52.134;5.438;2024-03-29T05:13:47;99269.69;;;7.29;100.00
80180;BME280;69505;52.134;5.438;2024-03-29T05:16:12;99272.03;;;7.23;100.00
80180;BME280;69505;52.134;5.438;2024-03-29T05:18:38;99286.47;;;7.19;100.00
80180;BME280;69505;52.134;5.438;2024-03-29T05:21:04;99278.00;;;7.15;100.00
80180;BME280;69505;52.134;5.438;2024-03-29T05:23:30;99275.88;;;7.09;100.00
80180;BME280;69505;52.134;5.438;2024-03-29T05:25:56;99271.59;;;7.08;100.00
80180;BME280;69505;52.134;5.438;2024-03-29T05:28:21;99275.47;;;7.04;100.00
80180;BME280;69505;52.134;5.438;2024-03-29T05:30:47;99287.69;;;7.05;100.00
80180;BME280;69505;52.134;5.438;2024-03-29T05:33:13;99295.03;;;7.01;100.00
80180;BME280;69505;52.134;5.438;2024-03-29T05:35:38;99309.91;;;7.02;100.00
80180;BME280;69505;52.134;5.438;2024-03-29T05:38:04;99312.44;;;7.04;100.00
80180;BME280;69505;52.134;5.438;2024-03-29T05:40:30;99314.09;;;7.05;100.00
80180;BME280;69505;52.134;5.438;2024-03-29T05:42:55;99322.97;;;7.04;100.00
80180;BME280;69505;52.134;5.438;2024-03-29T05:45:29;99333.66;;;7.02;100.00
80180;BME280;69505;52.134;5.438;2024-03-29T05:47:56;99331.59;;;7.06;100.00
80180;BME280;69505;52.134;5.438;2024-03-29T05:50:23;99317.53;;;7.05;100.00
80180;BME280;69505;52.134;5.438;2024-03-29T05:52:49;99322.81;;;7.05;100.00
80180;BME280;69505;52.134;5.438;2024-03-29T05:55:15;99343.81;;;7.07;100.00
80180;BME280;69505;52.134;5.438;2024-03-29T05:57:40;99353.56;;;7.06;100.00
80180;BME280;69505;52.134;5.438;2024-03-29T06:00:12;99336.59;;;7.09;100.00
80180;BME280;69505;52.134;5.438;2024-03-29T06:02:38;99351.75;;;7.07;100.00
80180;BME280;69505;52.134;5.438;2024-03-29T06:05:05;99338.53;;;7.07;100.00
80180;BME280;69505;52.134;5.438;2024-03-29T06:07:31;99343.81;;;7.07;100.00
80180;BME280;69505;52.134;5.438;2024-03-29T06:10:01;99355.78;;;7.11;100.00
80180;BME280;69505;52.134;5.438;2024-03-29T06:12:33;99374.03;;;7.14;100.00
80180;BME280;69505;52.134;5.438;2024-03-29T06:15:00;99357.47;;;7.12;100.00
80180;BME280;69505;52.134;5.438;2024-03-29T06:17:44;99365.41;;;7.12;100.00
80180;BME280;69505;52.134;5.438;2024-03-29T06:20:11;99380.13;;;7.15;100.00
80180;BME280;69505;52.134;5.438;2024-03-29T06:22:37;99376.66;;;7.14;100.00
80180;BME280;69505;52.134;5.438;2024-03-29T06:25:02;99377.38;;;7.16;100.00
80180;BME280;69505;52.134;5.438;2024-03-29T06:27:33;99383.34;;;7.18;100.00
80180;BME280;69505;52.134;5.438;2024-03-29T06:29:59;99375.84;;;7.23;100.00
80180;BME280;69505;52.134;5.438;2024-03-29T06:32:25;99370.03;;;7.29;100.00
80180;BME280;69505;52.134;5.438;2024-03-29T06:34:51;99374.34;;;7.30;100.00
80180;BME280;69505;52.134;5.438;2024-03-29T06:37:16;99380.59;;;7.29;100.00
80180;BME280;69505;52.134;5.438;2024-03-29T06:39:42;99377.84;;;7.31;100.00
80180;BME280;69505;52.134;5.438;2024-03-29T06:42:09;99374.50;;;7.39;100.00
80180;BME280;69505;52.134;5.438;2024-03-29T06:44:35;99375.91;;;7.43;100.00
80180;BME280;69505;52.134;5.438;2024-03-29T06:47:02;99372.16;;;7.45;100.00
80180;BME280;69505;52.134;5.438;2024-03-29T06:49:28;99362.88;;;7.51;100.00
80180;BME280;69505;52.134;5.438;2024-03-29T06:51:53;99366.22;;;7.53;100.00
80180;BME280;69505;52.134;5.438;2024-03-29T06:54:21;99363.16;;;7.58;100.00
80180;BME280;69505;52.134;5.438;2024-03-29T06:56:52;99358.03;;;7.66;100.00
80180;BME280;69505;52.134;5.438;2024-03-29T06:59:18;99363.47;;;7.64;100.00
80180;BME280;69505;52.134;5.438;2024-03-29T07:01:44;99358.03;;;7.66;100.00
80180;BME280;69505;52.134;5.438;2024-03-29T07:04:10;99344.28;;;7.62;100.00
80180;BME280;69505;52.134;5.438;2024-03-29T07:06:35;99354.56;;;7.65;100.00
80180;BME280;69505;52.134;5.438;2024-03-29T07:09:03;99345.50;;;7.68;100.00
80180;BME280;69505;52.134;5.438;2024-03-29T07:11:30;99349.44;;;7.73;100.00
80180;BME280;69505;52.134;5.438;2024-03-29T07:13:55;99350.41;;;7.82;100.00
80180;BME280;69505;52.134;5.438;2024-03-29T07:16:21;99356.97;;;7.88;100.00
80180;BME280;69505;52.134;5.438;2024-03-29T07:18:46;99358.91;;;7.86;100.00
80180;BME280;69505;52.134;5.438;2024-03-29T07:21:12;99360.72;;;7.85;100.00
80180;BME280;69505;52.134;5.438;2024-03-29T07:23:38;99374.88;;;7.84;100.00
80180;BME280;69505;52.134;5.438;2024-03-29T07:26:05;99367.94;;;7.83;100.00
80180;BME280;69505;52.134;5.438;2024-03-29T07:28:30;99372.13;;;7.86;100.00
80180;BME280;69505;52.134;5.438;2024-03-29T07:30:57;99376.41;;;7.87;100.00
80180;BME280;69505;52.134;5.438;2024-03-29T07:33:24;99385.75;;;7.91;100.00
80180;BME280;69505;52.134;5.438;2024-03-29T07:35:53;99386.31;;;7.95;100.00
80180;BME280;69505;52.134;5.438;2024-03-29T07:38:19;99400.34;;;7.95;100.00
80180;BME280;69505;52.134;5.438;2024-03-29T07:40:47;99406.34;;;7.97;100.00
80180;BME280;69505;52.134;5.438;2024-03-29T07:43:13;99393.00;;;7.99;100.00
80180;BME280;69505;52.134;5.438;2024-03-29T07:45:43;99397.16;;;8.01;100.00
80180;BME280;69505;52.134;5.438;2024-03-29T07:48:14;99386.75;;;8.09;100.00
80180;BME280;69505;52.134;5.438;2024-03-29T07:50:41;99390.94;;;8.22;100.00
80180;BME280;69505;52.134;5.438;2024-03-29T07:53:07;99379.09;;;8.26;100.00
80180;BME280;69505;52.134;5.438;2024-03-29T07:55:33;99386.03;;;8.37;100.00
80180;BME280;69505;52.134;5.438;2024-03-29T07:57:59;99391.78;;;8.42;100.00
80180;BME280;69505;52.134;5.438;2024-03-29T08:00:26;99393.84;;;8.38;100.00
80180;BME280;69505;52.134;5.438;2024-03-29T08:02:51;99392.72;;;8.31;100.00
80180;BME280;69505;52.134;5.438;2024-03-29T08:05:20;99392.03;;;8.29;100.00
80180;BME280;69505;52.134;5.438;2024-03-29T08:07:46;99386.47;;;8.32;100.00
80180;BME280;69505;52.134;5.438;2024-03-29T08:10:12;99381.00;;;8.33;100.00
80180;BME280;69505;52.134;5.438;2024-03-29T08:12:37;99368.91;;;8.31;100.00
80180;BME280;69505;52.134;5.438;2024-03-29T08:15:04;99372.94;;;8.35;100.00
80180;BME280;69505;52.134;5.438;2024-03-29T08:17:29;99375.91;;;8.42;100.00
80180;BME280;69505;52.134;5.438;2024-03-29T08:19:55;99383.97;;;8.40;100.00
80180;BME280;69505;52.134;5.438;2024-03-29T08:22:21;99397.75;;;8.53;100.00
80180;BME280;69505;52.134;5.438;2024-03-29T08:24:47;99404.97;;;8.71;100.00
80180;BME280;69505;52.134;5.438;2024-03-29T08:27:12;99403.06;;;8.63;100.00
80180;BME280;69505;52.134;5.438;2024-03-29T08:29:38;99403.31;;;8.60;100.00
80180;BME280;69505;52.134;5.438;2024-03-29T08:32:04;99403.88;;;8.64;100.00
80180;BME280;69505;52.134;5.438;2024-03-29T08:34:32;99382.69;;;8.73;100.00
80180;BME280;69505;52.134;5.438;2024-03-29T08:37:01;99377.94;;;8.77;100.00
80180;BME280;69505;52.134;5.438;2024-03-29T08:39:29;99394.88;;;8.94;100.00
80180;BME280;69505;52.134;5.438;2024-03-29T08:41:54;99403.19;;;9.09;100.00
80180;BME280;69505;52.134;5.438;2024-03-29T08:44:20;99410.53;;;9.25;100.00
80180;BME280;69505;52.134;5.438;2024-03-29T08:46:46;99414.81;;;9.35;100.00
80180;BME280;69505;52.134;5.438;2024-03-29T08:49:11;99417.97;;;9.49;100.00
80180;BME280;69505;52.134;5.438;2024-03-29T08:51:37;99422.31;;;9.50;100.00
80180;BME280;69505;52.134;5.438;2024-03-29T08:54:03;99408.31;;;9.58;100.00
80180;BME280;69505;52.134;5.438;2024-03-29T08:56:33;99410.63;;;9.88;100.00
80180;BME280;69505;52.134;5.438;2024-03-29T08:59:05;99413.00;;;10.09;100.00
80180;BME280;69505;52.134;5.438;2024-03-29T09:01:44;99416.94;;;10.05;100.00
80180;BME280;69505;52.134;5.438;2024-03-29T09:04:10;99403.50;;;10.52;100.00
80180;BME280;69505;52.134;5.438;2024-03-29T09:06:39;99409.94;;;11.97;95.34
80180;BME280;69505;52.134;5.438;2024-03-29T09:09:06;99410.16;;;12.69;92.38
80180;BME280;69505;52.134;5.438;2024-03-29T09:11:32;99410.97;;;14.21;83.93
80180;BME280;69505;52.134;5.438;2024-03-29T09:13:58;99417.66;;;13.86;82.87
80180;BME280;69505;52.134;5.438;2024-03-29T09:16:27;99415.31;;;13.59;84.01
80180;BME280;69505;52.134;5.438;2024-03-29T09:18:56;99415.22;;;13.28;85.81
80180;BME280;69505;52.134;5.438;2024-03-29T09:21:22;99408.06;;;13.20;84.18
80180;BME280;69505;52.134;5.438;2024-03-29T09:23:48;99410.28;;;13.09;85.67
80180;BME280;69505;52.134;5.438;2024-03-29T09:26:16;99414.28;;;12.96;86.49
80180;BME280;69505;52.134;5.438;2024-03-29T09:28:42;99414.66;;;12.52;85.91
80180;BME280;69505;52.134;5.438;2024-03-29T09:31:08;99428.44;;;12.23;88.14
80180;BME280;69505;52.134;5.438;2024-03-29T09:33:34;99434.88;;;12.04;87.64
80180;BME280;69505;52.134;5.438;2024-03-29T09:36:00;99439.66;;;11.92;87.66
80180;BME280;69505;52.134;5.438;2024-03-29T09:38:26;99445.59;;;11.86;88.77
80180;BME280;69505;52.134;5.438;2024-03-29T09:41:13;99442.22;;;12.10;87.08
80180;BME280;69505;52.134;5.438;2024-03-29T09:43:41;99444.91;;;12.18;86.63
80180;BME280;69505;52.134;5.438;2024-03-29T09:46:11;99437.59;;;12.21;87.58
80180;BME280;69505;52.134;5.438;2024-03-29T09:48:40;99442.25;;;12.18;86.76
80180;BME280;69505;52.134;5.438;2024-03-29T09:51:06;99443.50;;;11.98;87.39
80180;BME280;69505;52.134;5.438;2024-03-29T09:53:34;99452.75;;;11.86;87.01
80180;BME280;69505;52.134;5.438;2024-03-29T09:56:03;99450.88;;;11.70;88.36
80180;BME280;69505;52.134;5.438;2024-03-29T09:58:29;99454.97;;;11.56;89.44
80180;BME280;69505;52.134;5.438;2024-03-29T10:00:55;99464.88;;;11.46;90.29
80180;BME280;69505;52.134;5.438;2024-03-29T10:03:23;99464.34;;;11.34;90.31
80180;BME280;69505;52.134;5.438;2024-03-29T10:05:58;99462.69;;;11.41;92.49
80180;BME280;69505;52.134;5.438;2024-03-29T10:08:26;99458.84;;;11.35;90.32
80180;BME280;69505;52.134;5.438;2024-03-29T10:10:53;99454.97;;;11.56;91.63
80180;BME280;69505;52.134;5.438;2024-03-29T10:13:19;99453.69;;;11.68;89.80
80180;BME280;69505;52.134;5.438;2024-03-29T10:15:46;99450.34;;;11.66;90.91
80180;BME280;69505;52.134;5.438;2024-03-29T10:18:15;99446.75;;;11.84;90.51
80180;BME280;69505;52.134;5.438;2024-03-29T10:20:41;99439.53;;;12.02;88.83
80180;BME280;69505;52.134;5.438;2024-03-29T10:23:06;99452.88;;;12.18;89.47
80180;BME280;69505;52.134;5.438;2024-03-29T10:25:33;99448.53;;;12.01;87.56
80180;BME280;69505;52.134;5.438;2024-03-29T10:28:00;99449.41;;;12.18;88.78
80180;BME280;69505;52.134;5.438;2024-03-29T10:30:27;99443.56;;;12.23;87.50
80180;BME280;69505;52.134;5.438;2024-03-29T10:32:55;99447.59;;;12.35;87.06
80180;BME280;69505;52.134;5.438;2024-03-29T10:35:21;99449.91;;;12.38;85.97
80180;BME280;69505;52.134;5.438;2024-03-29T10:37:46;99442.75;;;12.22;85.56
80180;BME280;69505;52.134;5.438;2024-03-29T10:40:12;99436.63;;;12.46;88.14
80180;BME280;69505;52.134;5.438;2024-03-29T10:42:41;99449.09;;;12.78;87.22
80180;BME280;69505;52.134;5.438;2024-03-29T10:45:08;99451.75;;;12.78;87.20
80180;BME280;69505;52.134;5.438;2024-03-29T10:47:34;99466.25;;;12.68;87.68
80180;BME280;69505;52.134;5.438;2024-03-29T10:50:00;99448.63;;;12.58;85.83
80180;BME280;69505;52.134;5.438;2024-03-29T10:52:26;99449.44;;;12.67;87.03
80180;BME280;69505;52.134;5.438;2024-03-29T10:54:53;99443.94;;;12.61;82.90
80180;BME280;69505;52.134;5.438;2024-03-29T10:57:27;99452.94;;;12.59;84.90
80180;BME280;69505;52.134;5.438;2024-03-29T11:02:57;99473.59;;;12.98;85.07
80180;BME280;69505;52.134;5.438;2024-03-29T11:05:29;99472.72;;;13.14;80.43
80180;BME280;69505;52.134;5.438;2024-03-29T11:07:56;99467.28;;;12.75;81.16
80180;BME280;69505;52.134;5.438;2024-03-29T11:10:39;99474.59;;;12.65;80.50
80180;BME280;69505;52.134;5.438;2024-03-29T11:15:50;99501.88;;;12.50;81.12
80180;BME280;69505;52.134;5.438;2024-03-29T11:18:17;99501.03;;;12.50;81.91
80180;BME280;69505;52.134;5.438;2024-03-29T11:20:46;99492.53;;;12.38;82.57
80180;BME280;69505;52.134;5.438;2024-03-29T11:23:17;99470.41;;;12.70;81.78
80180;BME280;69505;52.134;5.438;2024-03-29T11:25:55;99475.06;;;13.26;82.09
80180;BME280;69505;52.134;5.438;2024-03-29T11:28:34;99468.88;;;13.42;82.92
80180;BME280;69505;52.134;5.438;2024-03-29T11:31:06;99472.56;;;13.32;81.15
80180;BME280;69505;52.134;5.438;2024-03-29T11:33:43;99468.41;;;13.30;81.83
80180;BME280;69505;52.134;5.438;2024-03-29T11:36:11;99470.91;;;13.07;79.09
80180;BME280;69505;52.134;5.438;2024-03-29T11:38:38;99466.91;;;13.03;81.08
80180;BME280;69505;52.134;5.438;2024-03-29T11:41:16;99466.72;;;13.20;80.65
80180;BME280;69505;52.134;5.438;2024-03-29T11:43:42;99465.72;;;13.46;80.78
80180;BME280;69505;52.134;5.438;2024-03-29T11:46:13;99475.19;;;13.49;80.35
80180;BME280;69505;52.134;5.438;2024-03-29T11:48:39;99475.22;;;13.32;79.50
80180;BME280;69505;52.134;5.438;2024-03-29T11:51:08;99468.91;;;13.09;79.46
80180;BME280;69505;52.134;5.438;2024-03-29T11:53:35;99483.41;;;13.31;77.63
80180;BME280;69505;52.134;5.438;2024-03-29T11:56:02;99486.25;;;13.29;77.72
80180;BME280;69505;52.134;5.438;2024-03-29T11:58:31;99479.06;;;13.38;78.89
80180;BME280;69505;52.134;5.438;2024-03-29T12:00:58;99473.06;;;13.44;77.49
80180;BME280;69505;52.134;5.438;2024-03-29T12:03:28;99476.53;;;13.53;78.84
80180;BME280;69505;52.134;5.438;2024-03-29T12:05:56;99492.19;;;13.56;75.31
80180;BME280;69505;52.134;5.438;2024-03-29T12:08:31;99491.03;;;13.50;77.80
80180;BME280;69505;52.134;5.438;2024-03-29T12:10:58;99488.84;;;13.54;78.14
80180;BME280;69505;52.134;5.438;2024-03-29T12:13:24;99500.50;;;13.61;77.50
80180;BME280;69505;52.134;5.438;2024-03-29T12:15:49;99513.19;;;13.67;77.96
80180;BME280;69505;52.134;5.438;2024-03-29T12:18:15;99511.47;;;13.74;78.57
80180;BME280;69505;52.134;5.438;2024-03-29T12:20:42;99512.09;;;13.85;76.81
80180;BME280;69505;52.134;5.438;2024-03-29T12:23:12;99519.78;;;13.79;77.13
80180;BME280;69505;52.134;5.438;2024-03-29T12:25:39;99514.44;;;13.79;77.07
80180;BME280;69505;52.134;5.438;2024-03-29T12:28:05;99511.75;;;13.88;76.69
80180;BME280;69505;52.134;5.438;2024-03-29T12:30:34;99503.03;;;14.02;75.71
80180;BME280;69505;52.134;5.438;2024-03-29T12:33:14;99514.84;;;14.08;74.08
80180;BME280;69505;52.134;5.438;2024-03-29T12:35:45;99513.84;;;14.09;74.72
80180;BME280;69505;52.134;5.438;2024-03-29T12:38:14;99510.50;;;14.07;72.86
80180;BME280;69505;52.134;5.438;2024-03-29T12:40:44;99515.78;;;14.23;72.71
80180;BME280;69505;52.134;5.438;2024-03-29T12:43:12;99518.16;;;14.49;72.50
80180;BME280;69505;52.134;5.438;2024-03-29T12:45:40;99514.88;;;14.39;71.06
80180;BME280;69505;52.134;5.438;2024-03-29T12:48:14;99516.50;;;14.40;74.95
80180;BME280;69505;52.134;5.438;2024-03-29T12:50:43;99511.59;;;14.60;73.53
80180;BME280;69505;52.134;5.438;2024-03-29T12:53:11;99512.69;;;14.66;75.10
80180;BME280;69505;52.134;5.438;2024-03-29T12:55:44;99513.50;;;14.74;74.82
80180;BME280;69505;52.134;5.438;2024-03-29T12:58:31;99515.38;;;14.66;71.65
80180;BME280;69505;52.134;5.438;2024-03-29T13:05:06;99516.78;;;14.53;72.31
80180;BME280;69505;52.134;5.438;2024-03-29T13:11:13;99517.94;;;14.59;72.69
80180;BME280;69505;52.134;5.438;2024-03-29T13:13:38;99533.50;;;14.55;72.88
80180;BME280;69505;52.134;5.438;2024-03-29T13:16:05;99522.78;;;14.64;73.33
80180;BME280;69505;52.134;5.438;2024-03-29T13:18:31;99527.97;;;14.57;71.66